createdAt,value
2022-10-05T00:00:51.458Z,60.26
2022-10-05T00:01:51.492Z,59.36
2022-10-05T00:02:51.448Z,59.18
2022-10-05T00:03:51.484Z,59.28
2022-10-05T00:04:51.493Z,58.95
2022-10-05T00:05:51.426Z,58.06
2022-10-05T00:06:51.418Z,58.75
2022-10-05T00:07:51.413Z,61.99
2022-10-05T00:08:51.403Z,60.77
2022-10-05T00:09:51.427Z,60.82
2022-10-05T00:10:51.392Z,58.33
2022-10-05T00:11:51.375Z,59.06
2022-10-05T00:12:51.397Z,61.21
2022-10-05T00:13:51.374Z,61.56
2022-10-05T00:14:51.368Z,61.16
2022-10-05T00:15:51.388Z,61.27
2022-10-05T00:16:51.720Z,57.43
2022-10-05T00:17:51.353Z,59.63
2022-10-05T00:18:51.365Z,60.56
2022-10-05T00:19:51.334Z,60.54
2022-10-05T00:20:51.331Z,60.88
2022-10-05T00:21:51.330Z,60.19
2022-10-05T00:22:51.311Z,58.49
2022-10-05T00:23:51.294Z,60.29
2022-10-05T00:24:51.307Z,60.14
2022-10-05T00:25:51.283Z,60.95
2022-10-05T00:26:56.899Z,60.88
2022-10-05T00:27:52.323Z,59.62
2022-10-05T00:28:51.258Z,60.89
2022-10-05T00:29:51.248Z,62.03
2022-10-05T00:30:51.247Z,62.49
2022-10-05T00:31:51.312Z,61.19
2022-10-05T00:32:53.017Z,62.37
2022-10-05T00:33:51.216Z,59.26
2022-10-05T00:34:51.219Z,61.26
2022-10-05T00:35:51.221Z,60.01
2022-10-05T00:36:51.222Z,60.60
2022-10-05T00:37:51.188Z,63.96
2022-10-05T00:38:51.186Z,62.02
2022-10-05T00:39:51.185Z,62.67
2022-10-05T00:40:51.169Z,62.25
2022-10-05T00:41:51.162Z,61.17
2022-10-05T00:42:51.173Z,61.46
2022-10-05T00:43:51.148Z,62.78
2022-10-05T00:44:51.139Z,60.90
2022-10-05T00:45:51.177Z,61.26
2022-10-05T00:46:51.132Z,62.39
2022-10-05T00:47:51.124Z,60.76
2022-10-05T00:48:51.134Z,58.68
2022-10-05T00:49:51.125Z,59.91
2022-10-05T00:50:51.104Z,63.53
2022-10-05T00:51:51.089Z,61.13
2022-10-05T00:52:51.089Z,61.98
2022-10-05T00:53:51.096Z,61.55
2022-10-05T00:54:51.071Z,62.44
2022-10-05T00:55:51.082Z,63.08
2022-10-05T00:56:51.068Z,65.22
2022-10-05T00:57:51.047Z,62.44
2022-10-05T00:58:51.034Z,61.87
2022-10-05T00:59:51.039Z,61.58
2022-10-05T01:00:51.065Z,60.88
2022-10-05T01:01:51.096Z,61.53
2022-10-05T01:02:51.097Z,61.13
2022-10-05T01:03:51.013Z,58.58
2022-10-05T01:04:51.007Z,58.76
2022-10-05T01:05:50.992Z,61.15
2022-10-05T01:06:51.009Z,58.52
2022-10-05T01:07:50.976Z,61.46
2022-10-05T01:08:50.978Z,59.25
2022-10-05T01:09:50.957Z,59.96
2022-10-05T01:10:50.948Z,61.40
2022-10-05T01:11:50.930Z,60.94
2022-10-05T01:12:50.974Z,58.61
2022-10-05T01:13:50.933Z,59.27
2022-10-05T01:14:50.921Z,59.25
2022-10-05T01:15:50.946Z,61.83
2022-10-05T01:16:51.322Z,61.56
2022-10-05T01:17:50.904Z,61.01
2022-10-05T01:18:50.909Z,62.73
2022-10-05T01:19:50.890Z,59.87
2022-10-05T01:20:50.902Z,61.03
2022-10-05T01:21:50.878Z,61.10
2022-10-05T01:22:50.875Z,59.92
2022-10-05T01:23:50.874Z,61.87
2022-10-05T01:24:50.869Z,61.86
2022-10-05T01:25:50.858Z,60.71
2022-10-05T01:26:50.848Z,60.17
2022-10-05T01:27:50.826Z,61.60
2022-10-05T01:28:50.837Z,61.14
2022-10-05T01:29:50.823Z,58.38
2022-10-05T01:30:50.811Z,59.20
2022-10-05T01:31:50.850Z,59.11
2022-10-05T01:32:50.799Z,58.40
2022-10-05T01:33:50.783Z,60.72
2022-10-05T01:34:50.808Z,60.52
2022-10-05T01:35:50.771Z,61.67
2022-10-05T01:36:50.767Z,60.24
2022-10-05T01:37:50.789Z,60.09
2022-10-05T01:38:50.776Z,59.11
2022-10-05T01:39:50.742Z,61.99
2022-10-05T01:40:50.766Z,61.07
2022-10-05T01:41:50.736Z,61.49
2022-10-05T01:42:50.726Z,63.00
2022-10-05T01:43:50.747Z,61.74
2022-10-05T01:44:50.723Z,60.63
2022-10-05T01:45:50.791Z,61.47
2022-10-05T01:46:50.697Z,61.71
2022-10-05T01:47:50.703Z,60.76
2022-10-05T01:48:50.691Z,61.21
2022-10-05T01:49:50.693Z,61.60
2022-10-05T01:50:50.668Z,60.25
2022-10-05T01:51:50.659Z,58.60
2022-10-05T01:52:50.661Z,59.33
2022-10-05T01:53:50.645Z,61.83
2022-10-05T01:54:50.658Z,61.09
2022-10-05T01:55:50.634Z,58.72
2022-10-05T01:56:50.626Z,60.83
2022-10-05T01:57:50.626Z,58.80
2022-10-05T01:58:50.617Z,60.69
2022-10-05T01:59:50.606Z,60.92
2022-10-05T02:00:50.651Z,59.80
2022-10-05T02:01:50.615Z,60.37
2022-10-05T02:02:50.577Z,58.89
2022-10-05T02:03:50.567Z,61.21
2022-10-05T02:05:02.015Z,60.13
2022-10-05T02:05:51.588Z,61.41
2022-10-05T02:06:50.552Z,60.24
2022-10-05T02:07:50.548Z,61.26
2022-10-05T02:08:50.537Z,61.26
2022-10-05T02:09:50.526Z,61.21
2022-10-05T02:10:50.529Z,60.98
2022-10-05T02:11:50.537Z,60.49
2022-10-05T02:12:50.507Z,58.50
2022-10-05T02:13:50.495Z,58.69
2022-10-05T02:14:50.495Z,61.10
2022-10-05T02:15:50.545Z,61.37
2022-10-05T02:16:50.486Z,59.84
2022-10-05T02:17:50.496Z,60.72
2022-10-05T02:18:50.478Z,61.73
2022-10-05T02:19:50.470Z,60.46
2022-10-05T02:20:50.468Z,62.54
2022-10-05T02:21:50.456Z,62.35
2022-10-05T02:22:50.445Z,59.53
2022-10-05T02:23:50.454Z,60.69
2022-10-05T02:24:50.428Z,62.31
2022-10-05T02:25:50.429Z,59.96
2022-10-05T02:26:50.444Z,62.25
2022-10-05T02:27:50.412Z,61.50
2022-10-05T02:28:50.408Z,62.87
2022-10-05T02:29:50.398Z,62.26
2022-10-05T02:30:50.395Z,62.08
2022-10-05T02:31:50.467Z,62.91
2022-10-05T02:32:50.399Z,63.35
2022-10-05T02:33:50.378Z,60.43
2022-10-05T02:34:50.369Z,61.94
2022-10-05T02:35:50.346Z,61.80
2022-10-05T02:36:50.364Z,62.92
2022-10-05T02:37:50.331Z,61.77
2022-10-05T02:38:50.328Z,61.93
2022-10-05T02:39:50.343Z,62.27
2022-10-05T02:40:50.321Z,62.98
2022-10-05T02:41:50.311Z,61.87
2022-10-05T02:42:50.301Z,62.67
2022-10-05T02:43:50.317Z,62.09
2022-10-05T02:44:50.299Z,62.26
2022-10-05T02:45:50.375Z,64.63
2022-10-05T02:46:56.072Z,65.46
2022-10-05T02:47:51.277Z,65.30
2022-10-05T02:48:50.262Z,63.62
2022-10-05T02:49:50.256Z,63.09
2022-10-05T02:50:50.258Z,63.23
2022-10-05T02:51:50.293Z,63.60
2022-10-05T02:52:50.234Z,64.06
2022-10-05T02:53:50.229Z,63.23
2022-10-05T02:54:50.222Z,61.21
2022-10-05T02:55:50.216Z,63.70
2022-10-05T02:56:50.210Z,64.31
2022-10-05T02:57:50.220Z,63.20
2022-10-05T02:58:50.194Z,64.07
2022-10-05T02:59:50.206Z,64.20
2022-10-05T03:00:50.223Z,64.24
2022-10-05T03:01:50.220Z,64.99
2022-10-05T03:02:50.173Z,63.67
2022-10-05T03:03:50.193Z,62.48
2022-10-05T03:04:50.174Z,63.21
2022-10-05T03:05:50.154Z,63.06
2022-10-05T03:06:50.138Z,64.24
2022-10-05T03:07:50.134Z,64.43
2022-10-05T03:08:50.130Z,63.89
2022-10-05T03:09:50.139Z,62.99
2022-10-05T03:10:50.126Z,64.53
2022-10-05T03:11:50.107Z,63.70
2022-10-05T03:12:50.107Z,62.44
2022-10-05T03:13:50.095Z,62.38
2022-10-05T03:14:50.109Z,64.32
2022-10-05T03:15:50.122Z,63.13
2022-10-05T03:16:50.078Z,63.18
2022-10-05T03:17:50.088Z,63.40
2022-10-05T03:18:50.066Z,63.76
2022-10-05T03:19:50.079Z,63.64
2022-10-05T03:20:50.049Z,63.91
2022-10-05T03:21:50.045Z,63.06
2022-10-05T03:22:50.043Z,63.05
2022-10-05T03:23:51.839Z,63.68
2022-10-05T03:24:50.035Z,63.55
2022-10-05T03:25:50.017Z,64.09
2022-10-05T03:26:50.016Z,63.98
2022-10-05T03:27:50.016Z,64.64
2022-10-05T03:28:50.011Z,63.37
2022-10-05T03:29:49.988Z,64.40
2022-10-05T03:30:50.036Z,64.08
2022-10-05T03:31:49.979Z,61.70
2022-10-05T03:32:49.982Z,62.40
2022-10-05T03:33:49.984Z,63.60
2022-10-05T03:34:49.967Z,65.47
2022-10-05T03:35:49.959Z,64.75
2022-10-05T03:36:49.946Z,64.30
2022-10-05T03:37:49.959Z,64.94
2022-10-05T03:38:49.937Z,65.08
2022-10-05T03:39:49.924Z,64.49
2022-10-05T03:40:49.916Z,65.33
2022-10-05T03:41:49.918Z,63.66
2022-10-05T03:42:49.909Z,64.87
2022-10-05T03:43:49.911Z,64.35
2022-10-05T03:44:49.894Z,64.18
2022-10-05T03:45:49.913Z,64.78
2022-10-05T03:46:50.181Z,64.38
2022-10-05T03:47:49.877Z,64.59
2022-10-05T03:48:49.890Z,64.24
2022-10-05T03:49:49.876Z,64.80
2022-10-05T03:50:49.852Z,60.80
2022-10-05T03:51:49.853Z,62.51
2022-10-05T03:52:49.837Z,64.79
2022-10-05T03:53:49.827Z,64.55
2022-10-05T03:54:49.845Z,63.92
2022-10-05T03:55:49.823Z,63.57
2022-10-05T03:56:50.081Z,63.16
2022-10-05T03:57:49.801Z,64.34
2022-10-05T03:58:49.811Z,65.29
2022-10-05T03:59:49.797Z,64.43
2022-10-05T04:00:49.811Z,64.80
2022-10-05T04:01:49.829Z,63.72
2022-10-05T04:02:49.828Z,62.21
2022-10-05T04:03:49.781Z,61.81
2022-10-05T04:04:49.793Z,62.22
2022-10-05T04:05:49.796Z,63.77
2022-10-05T04:06:50.065Z,64.77
2022-10-05T04:07:49.769Z,64.80
2022-10-05T04:08:49.741Z,65.54
2022-10-05T04:09:49.763Z,65.84
2022-10-05T04:10:49.727Z,65.08
2022-10-05T04:11:49.721Z,64.23
2022-10-05T04:12:49.734Z,64.13
2022-10-05T04:13:49.698Z,63.70
2022-10-05T04:14:49.703Z,64.31
2022-10-05T04:15:49.730Z,66.17
2022-10-05T04:16:49.890Z,64.32
2022-10-05T04:17:49.699Z,64.05
2022-10-05T04:18:49.680Z,64.81
2022-10-05T04:19:49.667Z,64.61
2022-10-05T04:20:49.656Z,65.10
2022-10-05T04:21:49.662Z,65.09
2022-10-05T04:22:49.646Z,63.65
2022-10-05T04:23:49.655Z,62.42
2022-10-05T04:24:49.633Z,64.03
2022-10-05T04:25:49.622Z,64.97
2022-10-05T04:26:49.821Z,65.52
2022-10-05T04:27:49.617Z,64.52
2022-10-05T04:28:49.622Z,62.97
2022-10-05T04:29:49.605Z,63.34
2022-10-05T04:30:49.618Z,64.79
2022-10-05T04:31:49.632Z,64.53
2022-10-05T04:32:49.571Z,65.60
2022-10-05T04:33:49.576Z,64.11
2022-10-05T04:34:49.562Z,65.70
2022-10-05T04:35:49.555Z,65.58
2022-10-05T04:36:49.614Z,65.16
2022-10-05T04:37:49.556Z,67.12
2022-10-05T04:38:49.534Z,67.07
2022-10-05T04:39:49.525Z,66.57
2022-10-05T04:40:49.536Z,65.97
2022-10-05T04:41:49.523Z,64.84
2022-10-05T04:42:49.505Z,65.69
2022-10-05T04:43:49.504Z,65.49
2022-10-05T04:44:49.494Z,63.23
2022-10-05T04:45:49.493Z,64.68
2022-10-05T04:46:49.988Z,65.39
2022-10-05T04:47:49.545Z,65.71
2022-10-05T04:48:49.510Z,64.78
2022-10-05T04:49:49.458Z,65.36
2022-10-05T04:50:49.452Z,65.15
2022-10-05T04:51:51.248Z,64.44
2022-10-05T04:52:49.461Z,65.53
2022-10-05T04:53:49.438Z,64.97
2022-10-05T04:54:49.428Z,63.46
2022-10-05T04:55:49.421Z,63.91
2022-10-05T04:56:49.767Z,64.23
2022-10-05T04:57:49.409Z,64.55
2022-10-05T04:58:49.421Z,64.10
2022-10-05T04:59:49.401Z,64.24
2022-10-05T05:00:49.455Z,63.96
2022-10-05T05:01:49.383Z,65.06
2022-10-05T05:02:49.386Z,64.40
2022-10-05T05:03:49.417Z,63.85
2022-10-05T05:04:51.864Z,63.74
2022-10-05T05:06:15.443Z,64.81
2022-10-05T05:06:50.369Z,63.33
2022-10-05T05:07:49.362Z,64.05
2022-10-05T05:08:49.354Z,62.91
2022-10-05T05:09:49.346Z,59.75
2022-10-05T05:10:49.325Z,61.98
2022-10-05T05:11:49.338Z,63.80
2022-10-05T05:12:49.317Z,63.99
2022-10-05T05:13:49.304Z,64.52
2022-10-05T05:14:49.294Z,66.09
2022-10-05T05:15:49.336Z,66.15
2022-10-05T05:16:49.577Z,66.38
2022-10-05T05:17:49.286Z,64.78
2022-10-05T05:18:49.271Z,64.89
2022-10-05T05:19:49.275Z,65.00
2022-10-05T05:20:49.270Z,63.42
2022-10-05T05:21:49.251Z,63.89
2022-10-05T05:22:49.262Z,64.08
2022-10-05T05:23:49.234Z,63.05
2022-10-05T05:24:49.237Z,63.28
2022-10-05T05:25:49.246Z,63.02
2022-10-05T05:26:49.528Z,62.55
2022-10-05T05:27:49.228Z,64.01
2022-10-05T05:28:49.220Z,63.13
2022-10-05T05:29:49.199Z,62.83
2022-10-05T05:30:49.199Z,63.63
2022-10-05T05:31:49.250Z,64.22
2022-10-05T05:32:49.187Z,64.04
2022-10-05T05:33:49.188Z,63.07
2022-10-05T05:34:49.157Z,64.30
2022-10-05T05:35:49.166Z,64.98
2022-10-05T05:36:49.475Z,64.92
2022-10-05T05:37:49.149Z,65.04
2022-10-05T05:38:49.144Z,63.91
2022-10-05T05:39:49.189Z,63.52
2022-10-05T05:40:49.151Z,64.62
2022-10-05T05:41:49.124Z,64.73
2022-10-05T05:42:49.112Z,63.95
2022-10-05T05:43:49.106Z,62.79
2022-10-05T05:44:49.143Z,63.42
2022-10-05T05:45:49.114Z,63.83
2022-10-05T05:47:03.636Z,63.56
2022-10-05T05:47:50.136Z,63.83
2022-10-05T05:48:49.077Z,64.12
2022-10-05T05:49:49.089Z,62.48
2022-10-05T05:50:49.165Z,62.81
2022-10-05T05:51:49.086Z,64.45
2022-10-05T05:52:49.066Z,64.50
2022-10-05T05:53:49.046Z,63.89
2022-10-05T05:54:49.058Z,64.21
2022-10-05T05:55:49.040Z,63.85
2022-10-05T05:56:49.232Z,63.49
2022-10-05T05:57:49.039Z,63.27
2022-10-05T05:58:49.027Z,63.24
2022-10-05T05:59:49.024Z,63.09
2022-10-05T06:00:49.013Z,63.05
2022-10-05T06:01:49.131Z,63.02
2022-10-05T06:02:49.128Z,63.21
2022-10-05T06:03:48.985Z,64.32
2022-10-05T06:04:48.980Z,64.28
2022-10-05T06:05:48.968Z,65.29
2022-10-05T06:06:49.520Z,64.25
2022-10-05T06:07:48.981Z,63.95
2022-10-05T06:08:48.950Z,64.87
2022-10-05T06:09:48.975Z,64.77
2022-10-05T06:10:48.945Z,64.10
2022-10-05T06:11:48.931Z,63.36
2022-10-05T06:12:48.951Z,63.78
2022-10-05T06:13:48.934Z,64.61
2022-10-05T06:14:48.939Z,64.20
2022-10-05T06:15:48.907Z,64.35
2022-10-05T06:16:49.326Z,64.02
2022-10-05T06:17:48.901Z,63.59
2022-10-05T06:18:48.923Z,63.74
2022-10-05T06:19:48.881Z,64.08
2022-10-05T06:20:48.880Z,63.26
2022-10-05T06:21:48.890Z,63.43
2022-10-05T06:22:48.871Z,62.92
2022-10-05T06:23:48.864Z,63.23
2022-10-05T06:24:48.861Z,64.20
2022-10-05T06:25:48.882Z,64.66
2022-10-05T06:26:49.204Z,63.92
2022-10-05T06:27:48.846Z,64.17
2022-10-05T06:28:48.838Z,64.38
2022-10-05T06:29:48.825Z,62.82
2022-10-05T06:30:48.818Z,62.70
2022-10-05T06:31:48.885Z,62.77
2022-10-05T06:32:48.803Z,62.52
2022-10-05T06:33:48.815Z,63.65
2022-10-05T06:34:48.796Z,62.74
2022-10-05T06:35:48.798Z,62.22
2022-10-05T06:36:49.182Z,63.08
2022-10-05T06:37:48.760Z,62.74
2022-10-05T06:38:48.788Z,61.92
2022-10-05T06:39:48.748Z,62.13
2022-10-05T06:40:48.759Z,62.11
2022-10-05T06:41:48.739Z,60.93
2022-10-05T06:42:48.729Z,60.19
2022-10-05T06:43:48.745Z,61.24
2022-10-05T06:44:48.723Z,60.63
2022-10-05T06:45:48.754Z,61.38
2022-10-05T06:46:49.076Z,61.82
2022-10-05T06:47:48.687Z,61.92
2022-10-05T06:48:48.709Z,63.25
2022-10-05T06:49:48.678Z,63.11
2022-10-05T06:50:48.675Z,62.97
2022-10-05T06:51:48.661Z,62.47
2022-10-05T06:52:48.665Z,63.39
2022-10-05T06:53:48.644Z,64.54
2022-10-05T06:54:48.641Z,63.91
2022-10-05T06:55:48.629Z,63.49
2022-10-05T06:56:49.216Z,63.29
2022-10-05T06:57:48.612Z,62.17
2022-10-05T06:58:48.627Z,62.36
2022-10-05T06:59:48.600Z,63.16
2022-10-05T07:00:48.619Z,64.02
2022-10-05T07:01:48.905Z,63.91
2022-10-05T07:02:48.576Z,62.93
2022-10-05T07:03:48.593Z,63.08
2022-10-05T07:04:48.565Z,64.44
2022-10-05T07:05:48.547Z,65.66
2022-10-05T07:06:48.551Z,65.03
2022-10-05T07:07:48.527Z,64.71
2022-10-05T07:08:48.549Z,65.52
2022-10-05T07:09:48.516Z,63.42
2022-10-05T07:10:48.521Z,63.03
2022-10-05T07:11:54.347Z,62.47
2022-10-05T07:12:49.512Z,63.58
2022-10-05T07:13:48.507Z,63.92
2022-10-05T07:14:48.488Z,63.19
2022-10-05T07:15:48.510Z,63.37
2022-10-05T07:16:48.589Z,63.34
2022-10-05T07:17:48.462Z,62.78
2022-10-05T07:18:48.461Z,63.40
2022-10-05T07:19:48.442Z,63.21
2022-10-05T07:20:49.446Z,63.82
2022-10-05T07:21:48.829Z,62.72
2022-10-05T07:22:48.461Z,62.00
2022-10-05T07:23:48.415Z,62.50
2022-10-05T07:24:48.418Z,62.77
2022-10-05T07:25:48.407Z,63.61
2022-10-05T07:26:48.819Z,62.97
2022-10-05T07:27:51.012Z,63.79
2022-10-05T07:28:48.407Z,63.60
2022-10-05T07:29:48.377Z,64.56
2022-10-05T07:30:48.449Z,65.29
2022-10-05T07:31:48.365Z,64.08
2022-10-05T07:32:48.380Z,63.19
2022-10-05T07:33:48.355Z,61.10
2022-10-05T07:34:48.342Z,62.02
2022-10-05T07:35:48.330Z,59.92
2022-10-05T07:36:53.707Z,59.08
2022-10-05T07:37:49.345Z,59.05
2022-10-05T07:38:48.313Z,58.80
2022-10-05T07:40:00.286Z,58.44
2022-10-05T07:40:49.302Z,59.60
2022-10-05T07:41:48.290Z,59.54
2022-10-05T07:42:52.104Z,58.44
2022-10-05T07:44:05.005Z,58.07
2022-10-05T07:44:49.263Z,57.86
2022-10-05T07:45:48.383Z,57.01
2022-10-05T07:46:48.548Z,58.54
2022-10-05T07:47:48.235Z,59.33
2022-10-05T07:48:48.232Z,58.44
2022-10-05T07:49:48.209Z,58.50
2022-10-05T07:50:48.220Z,59.10
2022-10-05T07:51:48.257Z,59.00
2022-10-05T07:52:48.207Z,59.76
2022-10-05T07:53:48.208Z,59.69
2022-10-05T07:54:48.181Z,59.85
2022-10-05T07:55:48.185Z,60.73
2022-10-05T07:56:48.579Z,60.12
2022-10-05T07:57:48.167Z,59.80
2022-10-05T07:58:48.176Z,61.41
2022-10-05T07:59:48.134Z,61.59
2022-10-05T08:00:48.165Z,61.07
2022-10-05T08:01:48.164Z,61.41
2022-10-05T08:02:48.148Z,61.29
2022-10-05T08:03:48.097Z,60.79
2022-10-05T08:04:48.086Z,61.35
2022-10-05T08:05:48.079Z,60.98
2022-10-05T08:06:48.740Z,61.16
2022-10-05T08:07:48.066Z,61.36
2022-10-05T08:08:48.052Z,60.34
2022-10-05T08:09:48.056Z,59.86
2022-10-05T08:10:48.035Z,60.90
2022-10-05T08:11:48.423Z,61.58
2022-10-05T08:12:48.032Z,60.60
2022-10-05T08:13:48.020Z,59.45
2022-10-05T08:14:48.011Z,60.23
2022-10-05T08:15:48.048Z,60.07
2022-10-05T08:16:48.001Z,60.65
2022-10-05T08:17:48.001Z,61.83
2022-10-05T08:18:47.974Z,62.33
2022-10-05T08:19:47.954Z,61.05
2022-10-05T08:20:47.962Z,61.02
2022-10-05T08:21:48.266Z,60.75
2022-10-05T08:22:47.941Z,60.72
2022-10-05T08:23:47.921Z,61.62
2022-10-05T08:24:47.919Z,61.84
2022-10-05T08:25:47.924Z,62.22
2022-10-05T08:26:47.911Z,62.09
2022-10-05T08:27:47.890Z,62.47
2022-10-05T08:28:47.887Z,61.72
2022-10-05T08:29:47.878Z,62.08
2022-10-05T08:30:47.898Z,61.65
2022-10-05T08:31:48.041Z,61.53
2022-10-05T08:32:47.894Z,61.39
2022-10-05T08:33:47.846Z,61.80
2022-10-05T08:34:47.841Z,60.57
2022-10-05T08:35:47.829Z,60.82
2022-10-05T08:36:51.604Z,62.03
2022-10-05T08:37:47.811Z,62.18
2022-10-05T08:38:47.811Z,61.48
2022-10-05T08:39:47.798Z,60.60
2022-10-05T08:40:47.872Z,60.87
2022-10-05T08:41:48.156Z,61.47
2022-10-05T08:42:47.822Z,61.65
2022-10-05T08:43:47.810Z,61.27
2022-10-05T08:44:47.768Z,61.49
2022-10-05T08:45:47.784Z,60.46
2022-10-05T08:46:47.734Z,61.62
2022-10-05T08:47:47.744Z,61.30
2022-10-05T08:48:47.733Z,60.64
2022-10-05T08:49:47.725Z,61.38
2022-10-05T08:50:47.709Z,61.87
2022-10-05T08:51:48.173Z,61.36
2022-10-05T08:52:47.722Z,62.28
2022-10-05T08:53:47.688Z,62.78
2022-10-05T08:54:47.680Z,61.68
2022-10-05T08:55:47.668Z,61.57
2022-10-05T08:56:47.650Z,61.24
2022-10-05T08:57:47.661Z,61.38
2022-10-05T08:58:47.669Z,61.72
2022-10-05T08:59:47.649Z,61.45
2022-10-05T09:00:47.641Z,61.09
2022-10-05T09:01:47.904Z,60.77
2022-10-05T09:02:47.695Z,60.08
2022-10-05T09:03:47.596Z,60.42
2022-10-05T09:04:47.600Z,60.98
2022-10-05T09:05:47.583Z,60.79
2022-10-05T09:06:47.579Z,60.62
2022-10-05T09:07:47.568Z,61.07
2022-10-05T09:08:47.588Z,61.50
2022-10-05T09:09:47.570Z,61.54
2022-10-05T09:10:47.543Z,61.84
2022-10-05T09:11:47.832Z,60.98
2022-10-05T09:12:47.527Z,60.82
2022-10-05T09:13:47.518Z,61.56
2022-10-05T09:15:01.299Z,60.97
2022-10-05T09:15:48.534Z,61.19
2022-10-05T09:16:47.493Z,61.13
2022-10-05T09:17:47.486Z,61.36
2022-10-05T09:18:47.486Z,61.27
2022-10-05T09:19:47.509Z,63.16
2022-10-05T09:20:47.463Z,61.55
2022-10-05T09:21:47.949Z,60.69
2022-10-05T09:22:47.449Z,61.32
2022-10-05T09:23:48.041Z,60.01
2022-10-05T09:24:54.473Z,59.95
2022-10-05T09:25:47.422Z,60.28
2022-10-05T09:26:47.424Z,60.74
2022-10-05T09:27:47.422Z,60.79
2022-10-05T09:28:47.398Z,61.32
2022-10-05T09:29:47.387Z,59.83
2022-10-05T09:30:47.425Z,61.17
2022-10-05T09:31:47.815Z,60.35
2022-10-05T09:32:47.391Z,60.39
2022-10-05T09:33:47.375Z,59.72
2022-10-05T09:34:47.373Z,61.01
2022-10-05T09:35:47.345Z,61.14
2022-10-05T09:36:47.335Z,60.78
2022-10-05T09:37:47.334Z,60.87
2022-10-05T09:38:47.332Z,61.88
2022-10-05T09:39:47.313Z,59.83
2022-10-05T09:40:47.319Z,60.06
2022-10-05T09:41:47.521Z,60.19
2022-10-05T09:42:47.295Z,61.18
2022-10-05T09:43:47.277Z,60.91
2022-10-05T09:44:47.272Z,60.02
2022-10-05T09:45:47.259Z,59.69
2022-10-05T09:46:47.269Z,61.87
2022-10-05T09:47:47.253Z,61.77
2022-10-05T09:48:47.261Z,61.91
2022-10-05T09:49:47.223Z,62.09
2022-10-05T09:50:47.219Z,63.46
2022-10-05T09:51:47.556Z,63.72
2022-10-05T09:52:47.216Z,61.77
2022-10-05T09:53:47.217Z,61.91
2022-10-05T09:54:47.215Z,61.29
2022-10-05T09:55:47.169Z,62.53
2022-10-05T09:56:47.454Z,63.51
2022-10-05T09:57:49.320Z,62.81
2022-10-05T09:58:47.145Z,60.82
2022-10-05T09:59:47.135Z,61.25
2022-10-05T10:00:54.204Z,60.91
2022-10-05T10:01:48.472Z,60.84
2022-10-05T10:02:47.197Z,60.89
2022-10-05T10:03:47.148Z,60.79
2022-10-05T10:04:47.103Z,60.22
2022-10-05T10:05:47.115Z,60.11
2022-10-05T10:06:47.085Z,59.98
2022-10-05T10:07:47.080Z,61.31
2022-10-05T10:08:47.077Z,60.86
2022-10-05T10:09:47.072Z,59.08
2022-10-05T10:10:47.087Z,59.67
2022-10-05T10:11:47.228Z,60.25
2022-10-05T10:12:47.032Z,61.35
2022-10-05T10:13:47.031Z,60.64
2022-10-05T10:14:47.018Z,60.78
2022-10-05T10:15:47.074Z,61.40
2022-10-05T10:16:47.032Z,61.08
2022-10-05T10:17:46.991Z,60.86
2022-10-05T10:18:46.976Z,60.99
2022-10-05T10:19:46.979Z,61.44
2022-10-05T10:20:46.982Z,59.87
2022-10-05T10:21:47.211Z,60.65
2022-10-05T10:22:46.950Z,60.28
2022-10-05T10:23:46.937Z,60.14
2022-10-05T10:24:46.921Z,61.24
2022-10-05T10:25:46.918Z,60.65
2022-10-05T10:26:46.918Z,59.67
2022-10-05T10:27:51.615Z,60.82
2022-10-05T10:28:47.897Z,60.19
2022-10-05T10:29:46.898Z,58.83
2022-10-05T10:30:46.929Z,60.34
2022-10-05T10:31:47.185Z,60.55
2022-10-05T10:32:46.867Z,61.07
2022-10-05T10:33:46.854Z,59.61
2022-10-05T10:34:46.849Z,58.88
2022-10-05T10:35:46.851Z,60.43
2022-10-05T10:36:47.121Z,58.94
2022-10-05T10:37:46.863Z,58.83
2022-10-05T10:38:46.867Z,58.91
2022-10-05T10:39:46.809Z,59.54
2022-10-05T10:40:46.798Z,60.42
2022-10-05T10:41:46.989Z,59.60
2022-10-05T10:42:46.776Z,59.33
2022-10-05T10:43:46.785Z,59.58
2022-10-05T10:44:46.804Z,59.36
2022-10-05T10:45:46.761Z,60.13
2022-10-05T10:46:47.242Z,60.38
2022-10-05T10:47:46.758Z,59.49
2022-10-05T10:48:46.763Z,60.44
2022-10-05T10:49:46.723Z,60.26
2022-10-05T10:50:46.726Z,60.17
2022-10-05T10:51:46.708Z,60.23
2022-10-05T10:52:46.720Z,59.77
2022-10-05T10:53:46.709Z,60.27
2022-10-05T10:54:46.676Z,59.26
2022-10-05T10:55:46.672Z,58.78
2022-10-05T10:56:46.832Z,60.40
2022-10-05T10:57:46.653Z,61.48
2022-10-05T10:58:46.658Z,61.45
2022-10-05T10:59:46.636Z,60.55
2022-10-05T11:00:46.649Z,59.86
2022-10-05T11:01:47.021Z,61.75
2022-10-05T11:02:46.668Z,62.28
2022-10-05T11:03:46.630Z,60.32
2022-10-05T11:04:46.595Z,59.79
2022-10-05T11:05:48.785Z,59.46
2022-10-05T11:06:46.577Z,59.76
2022-10-05T11:07:46.586Z,58.63
2022-10-05T11:08:46.568Z,59.18
2022-10-05T11:09:46.551Z,58.64
2022-10-05T11:10:46.566Z,60.35
2022-10-05T11:11:46.984Z,59.34
2022-10-05T11:12:46.564Z,58.89
2022-10-05T11:13:46.516Z,60.09
2022-10-05T11:14:46.513Z,60.60
2022-10-05T11:15:46.637Z,58.03
2022-10-05T11:16:46.819Z,59.25
2022-10-05T11:17:46.482Z,61.65
2022-10-05T11:18:46.495Z,60.55
2022-10-05T11:20:02.953Z,59.70
2022-10-05T11:20:47.456Z,60.50
2022-10-05T11:21:46.446Z,60.45
2022-10-05T11:22:46.464Z,61.03
2022-10-05T11:23:46.428Z,61.64
2022-10-05T11:24:46.417Z,60.16
2022-10-05T11:25:46.416Z,59.20
2022-10-05T11:26:46.641Z,60.52
2022-10-05T11:27:46.395Z,61.40
2022-10-05T11:28:46.412Z,60.72
2022-10-05T11:29:46.381Z,59.69
2022-10-05T11:30:50.282Z,60.78
2022-10-05T11:31:46.797Z,60.96
2022-10-05T11:32:46.351Z,60.31
2022-10-05T11:33:46.344Z,59.62
2022-10-05T11:34:46.364Z,59.94
2022-10-05T11:35:46.331Z,59.49
2022-10-05T11:36:46.318Z,59.53
2022-10-05T11:37:46.318Z,59.70
2022-10-05T11:38:46.319Z,58.47
2022-10-05T11:39:46.319Z,59.05
2022-10-05T11:40:46.294Z,60.73
2022-10-05T11:41:46.656Z,60.15
2022-10-05T11:42:46.272Z,61.05
2022-10-05T11:43:46.268Z,61.24
2022-10-05T11:44:46.276Z,60.37
2022-10-05T11:45:46.317Z,59.52
2022-10-05T11:46:46.343Z,59.57
2022-10-05T11:47:46.238Z,59.34
2022-10-05T11:48:46.231Z,59.60
2022-10-05T11:49:46.218Z,58.41
2022-10-05T11:50:46.219Z,58.34
2022-10-05T11:51:46.643Z,58.53
2022-10-05T11:52:46.202Z,59.11
2022-10-05T11:53:46.195Z,60.08
2022-10-05T11:55:09.902Z,59.65
2022-10-05T11:55:47.193Z,60.19
2022-10-05T11:56:49.494Z,60.20
2022-10-05T11:57:47.159Z,60.93
2022-10-05T11:58:46.148Z,59.40
2022-10-05T11:59:46.162Z,59.26
2022-10-05T12:00:46.155Z,58.63
2022-10-05T12:01:46.128Z,59.93
2022-10-05T12:02:46.218Z,59.05
2022-10-05T12:03:46.182Z,58.42
2022-10-05T12:04:46.108Z,57.75
2022-10-05T12:05:46.111Z,61.13
2022-10-05T12:06:46.444Z,59.55
2022-10-05T12:07:46.095Z,59.47
2022-10-05T12:08:46.077Z,59.45
2022-10-05T12:09:46.065Z,60.40
2022-10-05T12:10:46.061Z,59.74
2022-10-05T12:11:46.068Z,58.55
2022-10-05T12:12:46.039Z,60.00
2022-10-05T12:13:46.036Z,59.82
2022-10-05T12:14:46.125Z,60.41
2022-10-05T12:15:46.063Z,58.84
2022-10-05T12:16:46.011Z,59.46
2022-10-05T12:17:46.065Z,62.26
2022-10-05T12:18:45.995Z,61.78
2022-10-05T12:19:45.989Z,61.53
2022-10-05T12:20:45.978Z,61.50
2022-10-05T12:21:45.968Z,60.82
2022-10-05T12:22:45.961Z,61.32
2022-10-05T12:23:45.973Z,61.24
2022-10-05T12:24:45.951Z,62.11
2022-10-05T12:25:45.935Z,61.35
2022-10-05T12:26:45.927Z,60.73
2022-10-05T12:27:45.928Z,61.44
2022-10-05T12:28:45.939Z,62.74
2022-10-05T12:29:45.901Z,63.74
2022-10-05T12:30:45.914Z,62.93
2022-10-05T12:31:45.961Z,62.65
2022-10-05T12:32:45.883Z,63.71
2022-10-05T12:33:45.903Z,63.86
2022-10-05T12:34:45.871Z,62.75
2022-10-05T12:35:49.400Z,62.60
2022-10-05T12:37:03.663Z,63.30
2022-10-05T12:37:46.842Z,62.07
2022-10-05T12:38:45.863Z,63.43
2022-10-05T12:39:45.890Z,64.00
2022-10-05T12:40:45.822Z,62.39
2022-10-05T12:41:45.803Z,63.12
2022-10-05T12:42:45.809Z,62.72
2022-10-05T12:43:45.798Z,62.35
2022-10-05T12:44:45.792Z,62.38
2022-10-05T12:45:45.836Z,61.32
2022-10-05T12:46:45.775Z,60.99
2022-10-05T12:47:49.211Z,62.81
2022-10-05T12:48:45.772Z,62.16
2022-10-05T12:49:45.804Z,62.86
2022-10-05T12:50:45.742Z,61.91
2022-10-05T12:51:45.840Z,62.05
2022-10-05T12:52:45.874Z,61.61